sensor_id;sensor_type;location;lat;lon;timestamp;pressure;altitude;pressure_sealevel;temperature;humidity
62995;BME280;49086;52.300;4.850;2022-08-06T00:00:59;53344.38;;;-146.41;79.77
62995;BME280;49086;52.300;4.850;2022-08-06T00:03:26;53378.28;;;-146.41;79.99
62995;BME280;49086;52.300;4.850;2022-08-06T00:05:52;53304.53;;;-146.41;80.14
62995;BME280;49086;52.300;4.850;2022-08-06T00:08:20;53320.47;;;-146.41;80.07
62995;BME280;49086;52.300;4.850;2022-08-06T00:10:50;53294.56;;;-146.41;80.28
62995;BME280;49086;52.300;4.850;2022-08-06T00:13:20;53344.38;;;-146.41;80.19
62995;BME280;49086;52.300;4.850;2022-08-06T00:15:48;53360.34;;;-146.41;80.06
62995;BME280;49086;52.300;4.850;2022-08-06T00:18:14;53332.44;;;-146.41;80.53
62995;BME280;49086;52.300;4.850;2022-08-06T00:20:39;53358.34;;;-146.41;80.24
62995;BME280;49086;52.300;4.850;2022-08-06T00:23:09;53348.38;;;-146.41;80.30
62995;BME280;49086;52.300;4.850;2022-08-06T00:25:39;53338.41;;;-146.41;80.12
62995;BME280;49086;52.300;4.850;2022-08-06T00:28:07;53350.38;;;-146.41;80.34
62995;BME280;49086;52.300;4.850;2022-08-06T00:30:34;53362.31;;;-146.41;80.36
62995;BME280;49086;52.300;4.850;2022-08-06T00:33:01;53338.41;;;-146.41;80.94
62995;BME280;49086;52.300;4.850;2022-08-06T00:35:27;53340.41;;;-146.41;80.47
62995;BME280;49086;52.300;4.850;2022-08-06T00:37:53;53330.44;;;-146.41;80.51
62995;BME280;49086;52.300;4.850;2022-08-06T00:40:22;53330.44;;;-146.41;80.99
62995;BME280;49086;52.300;4.850;2022-08-06T00:42:49;53382.25;;;-146.41;81.27
62995;BME280;49086;52.300;4.850;2022-08-06T00:45:18;53370.31;;;-146.41;81.43
62995;BME280;49086;52.300;4.850;2022-08-06T00:47:48;53354.34;;;-146.41;81.68
62995;BME280;49086;52.300;4.850;2022-08-06T00:50:18;53376.28;;;-146.41;81.18
62995;BME280;49086;52.300;4.850;2022-08-06T00:52:43;53352.38;;;-146.41;81.53
62995;BME280;49086;52.300;4.850;2022-08-06T00:55:12;53366.31;;;-146.41;81.24
62995;BME280;49086;52.300;4.850;2022-08-06T00:57:42;53382.25;;;-146.41;80.92
62995;BME280;49086;52.300;4.850;2022-08-06T01:00:09;53342.41;;;-146.41;80.71
62995;BME280;49086;52.300;4.850;2022-08-06T01:02:54;53388.25;;;-146.41;80.53
62995;BME280;49086;52.300;4.850;2022-08-06T01:05:21;53356.34;;;-146.41;80.79
62995;BME280;49086;52.300;4.850;2022-08-06T01:07:50;53378.28;;;-146.41;80.76
62995;BME280;49086;52.300;4.850;2022-08-06T01:10:16;53342.41;;;-146.41;80.76
62995;BME280;49086;52.300;4.850;2022-08-06T01:12:42;53368.31;;;-146.41;81.03
62995;BME280;49086;52.300;4.850;2022-08-06T01:15:10;53332.44;;;-146.41;80.99
62995;BME280;49086;52.300;4.850;2022-08-06T01:28:58;53338.41;;;-146.41;81.17
62995;BME280;49086;52.300;4.850;2022-08-06T01:31:34;53352.38;;;-146.41;81.34
62995;BME280;49086;52.300;4.850;2022-08-06T01:34:10;53360.34;;;-146.41;81.42
62995;BME280;49086;52.300;4.850;2022-08-06T01:36:48;53380.28;;;-146.41;81.86
62995;BME280;49086;52.300;4.850;2022-08-06T01:39:17;53348.38;;;-146.41;81.87
62995;BME280;49086;52.300;4.850;2022-08-06T01:41:45;53348.38;;;-146.41;81.71
62995;BME280;49086;52.300;4.850;2022-08-06T01:44:15;53370.31;;;-146.41;81.93
62995;BME280;49086;52.300;4.850;2022-08-06T01:46:46;53406.19;;;-146.41;81.96
62995;BME280;49086;52.300;4.850;2022-08-06T01:49:18;53384.25;;;-146.41;82.42
62995;BME280;49086;52.300;4.850;2022-08-06T01:51:46;53338.41;;;-146.41;82.04
62995;BME280;49086;52.300;4.850;2022-08-06T01:54:14;53362.31;;;-146.41;82.11
62995;BME280;49086;52.300;4.850;2022-08-06T01:56:48;53350.38;;;-146.41;82.09
62995;BME280;49086;52.300;4.850;2022-08-06T01:59:21;53350.38;;;-146.41;82.41
62995;BME280;49086;52.300;4.850;2022-08-06T02:01:52;53378.28;;;-146.41;82.24
62995;BME280;49086;52.300;4.850;2022-08-06T02:04:21;53348.38;;;-146.41;82.80
62995;BME280;49086;52.300;4.850;2022-08-06T02:06:56;53370.31;;;-146.41;82.91
62995;BME280;49086;52.300;4.850;2022-08-06T02:09:23;53366.31;;;-146.41;83.15
62995;BME280;49086;52.300;4.850;2022-08-06T02:12:00;53342.41;;;-146.41;83.40
62995;BME280;49086;52.300;4.850;2022-08-06T02:14:30;53366.31;;;-146.41;83.34
62995;BME280;49086;52.300;4.850;2022-08-06T02:16:58;53346.38;;;-146.41;83.24
62995;BME280;49086;52.300;4.850;2022-08-06T02:19:28;53344.38;;;-146.41;83.61
62995;BME280;49086;52.300;4.850;2022-08-06T02:22:04;53366.31;;;-146.41;83.70
62995;BME280;49086;52.300;4.850;2022-08-06T02:24:31;53370.31;;;-146.41;83.42
62995;BME280;49086;52.300;4.850;2022-08-06T02:27:02;53378.28;;;-146.41;83.89
62995;BME280;49086;52.300;4.850;2022-08-06T02:29:29;53388.25;;;-146.41;84.00
62995;BME280;49086;52.300;4.850;2022-08-06T02:32:03;53396.22;;;-146.41;83.96
62995;BME280;49086;52.300;4.850;2022-08-06T02:34:33;53380.28;;;-146.41;84.35
62995;BME280;49086;52.300;4.850;2022-08-06T02:37:07;53368.31;;;-146.41;84.10
62995;BME280;49086;52.300;4.850;2022-08-06T02:39:40;53402.19;;;-146.41;84.16
62995;BME280;49086;52.300;4.850;2022-08-06T02:42:39;53362.31;;;-146.41;84.64
62995;BME280;49086;52.300;4.850;2022-08-06T02:45:13;53376.28;;;-146.41;84.48
62995;BME280;49086;52.300;4.850;2022-08-06T02:47:53;53336.41;;;-146.41;84.14
62995;BME280;49086;52.300;4.850;2022-08-06T02:50:39;53404.19;;;-146.41;84.41
62995;BME280;49086;52.300;4.850;2022-08-06T02:53:09;53356.34;;;-146.41;84.38
62995;BME280;49086;52.300;4.850;2022-08-06T02:55:39;53352.38;;;-146.41;84.59
62995;BME280;49086;52.300;4.850;2022-08-06T02:58:19;53356.34;;;-146.41;84.19
62995;BME280;49086;52.300;4.850;2022-08-06T03:00:51;53406.19;;;-146.41;84.33
62995;BME280;49086;52.300;4.850;2022-08-06T03:03:21;53378.28;;;-146.41;84.43
62995;BME280;49086;52.300;4.850;2022-08-06T03:05:52;53374.28;;;-146.41;84.62
62995;BME280;49086;52.300;4.850;2022-08-06T03:08:22;53418.16;;;-146.41;84.80
62995;BME280;49086;52.300;4.850;2022-08-06T03:10:53;53380.28;;;-146.41;84.85
62995;BME280;49086;52.300;4.850;2022-08-06T03:13:22;53394.22;;;-146.41;84.65
62995;BME280;49086;52.300;4.850;2022-08-06T03:15:49;53394.22;;;-146.41;85.09
62995;BME280;49086;52.300;4.850;2022-08-06T03:18:16;53358.34;;;-146.41;84.67
62995;BME280;49086;52.300;4.850;2022-08-06T03:20:45;53404.19;;;-146.41;85.32
62995;BME280;49086;52.300;4.850;2022-08-06T03:23:13;53402.19;;;-146.41;85.68
62995;BME280;49086;52.300;4.850;2022-08-06T03:25:46;53398.22;;;-146.41;85.34
62995;BME280;49086;52.300;4.850;2022-08-06T03:28:15;53414.16;;;-146.41;85.28
62995;BME280;49086;52.300;4.850;2022-08-06T03:30:44;53398.22;;;-146.41;85.40
62995;BME280;49086;52.300;4.850;2022-08-06T03:33:13;53394.22;;;-146.41;85.40
62995;BME280;49086;52.300;4.850;2022-08-06T03:35:39;53364.31;;;-146.41;85.38
62995;BME280;49086;52.300;4.850;2022-08-06T03:38:11;53402.19;;;-146.41;85.88
62995;BME280;49086;52.300;4.850;2022-08-06T03:40:38;53406.19;;;-146.41;85.81
62995;BME280;49086;52.300;4.850;2022-08-06T03:43:05;53362.31;;;-146.41;86.28
62995;BME280;49086;52.300;4.850;2022-08-06T03:45:36;53398.22;;;-146.41;86.42
62995;BME280;49086;52.300;4.850;2022-08-06T03:48:07;53402.19;;;-146.41;86.80
62995;BME280;49086;52.300;4.850;2022-08-06T03:50:42;53398.22;;;-146.41;87.17
62995;BME280;49086;52.300;4.850;2022-08-06T03:53:27;53374.28;;;-146.41;87.18
62995;BME280;49086;52.300;4.850;2022-08-06T03:55:57;53368.31;;;-146.41;87.26
62995;BME280;49086;52.300;4.850;2022-08-06T03:58:27;53434.09;;;-146.41;87.31
62995;BME280;49086;52.300;4.850;2022-08-06T04:01:05;53364.31;;;-146.41;87.37
62995;BME280;49086;52.300;4.850;2022-08-06T04:03:34;53382.25;;;-146.41;87.54
62995;BME280;49086;52.300;4.850;2022-08-06T04:06:00;53402.19;;;-146.41;87.21
62995;BME280;49086;52.300;4.850;2022-08-06T04:08:31;53358.34;;;-146.41;87.67
62995;BME280;49086;52.300;4.850;2022-08-06T04:10:59;53422.13;;;-146.41;87.70
62995;BME280;49086;52.300;4.850;2022-08-06T04:13:28;53438.06;;;-146.41;87.23
62995;BME280;49086;52.300;4.850;2022-08-06T04:15:56;53416.16;;;-146.41;87.34
62995;BME280;49086;52.300;4.850;2022-08-06T04:18:39;53366.31;;;-146.41;87.23
62995;BME280;49086;52.300;4.850;2022-08-06T04:21:19;53372.28;;;-146.41;87.31
62995;BME280;49086;52.300;4.850;2022-08-06T04:23:46;53388.25;;;-146.41;87.56
62995;BME280;49086;52.300;4.850;2022-08-06T04:26:13;53370.31;;;-146.41;87.72
62995;BME280;49086;52.300;4.850;2022-08-06T04:28:42;53386.25;;;-146.41;87.66
62995;BME280;49086;52.300;4.850;2022-08-06T04:31:09;53402.19;;;-146.41;87.77
62995;BME280;49086;52.300;4.850;2022-08-06T04:33:39;53398.22;;;-146.41;88.01
62995;BME280;49086;52.300;4.850;2022-08-06T04:36:10;53408.19;;;-146.41;87.92
62995;BME280;49086;52.300;4.850;2022-08-06T04:38:39;53402.19;;;-146.41;87.51
62995;BME280;49086;52.300;4.850;2022-08-06T04:41:08;53386.25;;;-146.41;87.79
62995;BME280;49086;52.300;4.850;2022-08-06T04:43:35;53372.28;;;-146.41;87.98
62995;BME280;49086;52.300;4.850;2022-08-06T04:46:04;53402.19;;;-146.41;88.77
62995;BME280;49086;52.300;4.850;2022-08-06T04:48:34;53408.19;;;-146.41;88.47
62995;BME280;49086;52.300;4.850;2022-08-06T04:51:24;53406.19;;;-146.41;88.12
62995;BME280;49086;52.300;4.850;2022-08-06T04:53:53;53380.28;;;-146.41;87.83
62995;BME280;49086;52.300;4.850;2022-08-06T04:56:19;53378.28;;;-146.41;87.44
62995;BME280;49086;52.300;4.850;2022-08-06T04:58:46;53404.19;;;-146.41;87.70
62995;BME280;49086;52.300;4.850;2022-08-06T05:01:17;53432.09;;;-146.41;87.53
62995;BME280;49086;52.300;4.850;2022-08-06T05:03:53;53376.28;;;-146.41;87.44
62995;BME280;49086;52.300;4.850;2022-08-06T05:06:25;53414.16;;;-146.41;87.29
62995;BME280;49086;52.300;4.850;2022-08-06T05:09:08;53402.19;;;-146.41;87.31
62995;BME280;49086;52.300;4.850;2022-08-06T05:11:54;53374.28;;;-146.41;87.14
62995;BME280;49086;52.300;4.850;2022-08-06T05:14:29;53398.22;;;-146.41;87.08
62995;BME280;49086;52.300;4.850;2022-08-06T05:17:00;53402.19;;;-146.41;86.94
62995;BME280;49086;52.300;4.850;2022-08-06T05:19:53;53370.31;;;-146.41;86.78
62995;BME280;49086;52.300;4.850;2022-08-06T05:22:45;53376.28;;;-146.41;86.84
62995;BME280;49086;52.300;4.850;2022-08-06T05:25:13;53392.22;;;-146.41;86.88
62995;BME280;49086;52.300;4.850;2022-08-06T05:27:40;53360.34;;;-146.41;86.43
62995;BME280;49086;52.300;4.850;2022-08-06T05:30:07;53382.25;;;-146.41;85.84
62995;BME280;49086;52.300;4.850;2022-08-06T05:32:43;53378.28;;;-146.41;86.03
62995;BME280;49086;52.300;4.850;2022-08-06T05:35:13;53376.28;;;-146.41;85.70
62995;BME280;49086;52.300;4.850;2022-08-06T05:37:46;53378.28;;;-146.41;85.45
62995;BME280;49086;52.300;4.850;2022-08-06T05:40:18;53392.22;;;-146.41;85.46
62995;BME280;49086;52.300;4.850;2022-08-06T05:42:47;53394.22;;;-146.41;85.23
62995;BME280;49086;52.300;4.850;2022-08-06T05:45:15;53350.38;;;-146.41;84.92
62995;BME280;49086;52.300;4.850;2022-08-06T05:47:47;53392.22;;;-146.41;84.61
62995;BME280;49086;52.300;4.850;2022-08-06T05:50:18;53380.28;;;-146.41;84.47
62995;BME280;49086;52.300;4.850;2022-08-06T05:52:57;53364.31;;;-146.41;83.48
62995;BME280;49086;52.300;4.850;2022-08-06T05:55:53;53374.28;;;-146.41;83.56
62995;BME280;49086;52.300;4.850;2022-08-06T05:58:34;53406.19;;;-146.41;83.09
62995;BME280;49086;52.300;4.850;2022-08-06T06:01:31;53354.34;;;-146.41;83.05
62995;BME280;49086;52.300;4.850;2022-08-06T06:04:00;53402.19;;;-146.41;82.25
62995;BME280;49086;52.300;4.850;2022-08-06T06:06:32;53358.34;;;-146.41;81.69
62995;BME280;49086;52.300;4.850;2022-08-06T06:09:00;53366.31;;;-146.41;81.15
62995;BME280;49086;52.300;4.850;2022-08-06T06:11:27;53330.44;;;-146.41;80.67
62995;BME280;49086;52.300;4.850;2022-08-06T06:13:53;53336.41;;;-146.41;80.15
62995;BME280;49086;52.300;4.850;2022-08-06T06:16:28;53336.41;;;-146.41;79.69
62995;BME280;49086;52.300;4.850;2022-08-06T06:19:19;53362.31;;;-146.41;79.14
62995;BME280;49086;52.300;4.850;2022-08-06T06:24:50;53346.38;;;-146.41;77.88
62995;BME280;49086;52.300;4.850;2022-08-06T06:30:08;53336.41;;;-146.41;77.67
62995;BME280;49086;52.300;4.850;2022-08-06T06:35:57;53318.47;;;-146.41;75.66
62995;BME280;49086;52.300;4.850;2022-08-06T06:38:47;53354.34;;;-146.41;74.66
62995;BME280;49086;52.300;4.850;2022-08-06T06:41:29;53322.47;;;-146.41;74.27
62995;BME280;49086;52.300;4.850;2022-08-06T06:44:19;53338.41;;;-146.41;73.70
62995;BME280;49086;52.300;4.850;2022-08-06T06:47:01;53306.50;;;-146.41;73.63
62995;BME280;49086;52.300;4.850;2022-08-06T06:49:39;53312.50;;;-146.41;71.69
62995;BME280;49086;52.300;4.850;2022-08-06T06:52:39;53332.44;;;-146.41;71.73
62995;BME280;49086;52.300;4.850;2022-08-06T06:55:33;53302.53;;;-146.41;71.43
62995;BME280;49086;52.300;4.850;2022-08-06T07:01:37;53318.47;;;-146.41;69.10
62995;BME280;49086;52.300;4.850;2022-08-06T07:04:05;53306.50;;;-146.41;68.16
62995;BME280;49086;52.300;4.850;2022-08-06T07:06:36;53272.63;;;-146.41;68.26
62995;BME280;49086;52.300;4.850;2022-08-06T07:09:06;53306.50;;;-146.41;67.95
62995;BME280;49086;52.300;4.850;2022-08-06T07:11:33;53304.53;;;-146.41;68.69
62995;BME280;49086;52.300;4.850;2022-08-06T07:14:01;53318.47;;;-146.41;68.32
62995;BME280;49086;52.300;4.850;2022-08-06T07:16:33;53280.59;;;-146.41;67.16
62995;BME280;49086;52.300;4.850;2022-08-06T07:19:00;53278.59;;;-146.41;67.36
62995;BME280;49086;52.300;4.850;2022-08-06T07:21:31;53280.59;;;-146.41;67.12
62995;BME280;49086;52.300;4.850;2022-08-06T07:24:00;53280.59;;;-146.41;66.47
62995;BME280;49086;52.300;4.850;2022-08-06T07:26:27;53258.69;;;-146.41;64.91
62995;BME280;49086;52.300;4.850;2022-08-06T07:28:54;53288.56;;;-146.41;65.05
62995;BME280;49086;52.300;4.850;2022-08-06T07:31:22;53276.63;;;-146.41;64.19
62995;BME280;49086;52.300;4.850;2022-08-06T07:33:54;53254.69;;;-146.41;64.16
62995;BME280;49086;52.300;4.850;2022-08-06T07:36:23;53284.59;;;-146.41;63.79
62995;BME280;49086;52.300;4.850;2022-08-06T07:38:51;53262.66;;;-146.41;63.49
62995;BME280;49086;52.300;4.850;2022-08-06T07:41:21;53298.53;;;-146.41;63.19
62995;BME280;49086;52.300;4.850;2022-08-06T07:44:12;53264.66;;;-146.41;61.28
62995;BME280;49086;52.300;4.850;2022-08-06T07:46:43;53272.63;;;-146.41;59.86
62995;BME280;49086;52.300;4.850;2022-08-06T07:49:11;53260.66;;;-146.41;58.66
62995;BME280;49086;52.300;4.850;2022-08-06T07:51:40;53250.69;;;-146.41;58.13
62995;BME280;49086;52.300;4.850;2022-08-06T07:54:17;53262.66;;;-146.41;57.47
62995;BME280;49086;52.300;4.850;2022-08-06T07:56:45;53246.72;;;-146.41;56.64
62995;BME280;49086;52.300;4.850;2022-08-06T07:59:11;53218.81;;;-146.41;56.92
62995;BME280;49086;52.300;4.850;2022-08-06T08:01:38;53232.75;;;-146.41;56.62
62995;BME280;49086;52.300;4.850;2022-08-06T08:04:09;53238.75;;;-146.41;56.64
62995;BME280;49086;52.300;4.850;2022-08-06T08:07:01;53208.84;;;-146.41;57.15
62995;BME280;49086;52.300;4.850;2022-08-06T08:09:29;53242.72;;;-146.41;56.10
62995;BME280;49086;52.300;4.850;2022-08-06T08:11:57;53228.78;;;-146.41;55.50
62995;BME280;49086;52.300;4.850;2022-08-06T08:14:27;53216.81;;;-146.41;54.83
62995;BME280;49086;52.300;4.850;2022-08-06T08:17:15;53204.84;;;-146.41;52.91
62995;BME280;49086;52.300;4.850;2022-08-06T08:19:51;53216.81;;;-146.41;52.44
62995;BME280;49086;52.300;4.850;2022-08-06T08:22:47;53218.81;;;-146.41;51.79
62995;BME280;49086;52.300;4.850;2022-08-06T08:25:40;53178.94;;;-146.41;51.86
62995;BME280;49086;52.300;4.850;2022-08-06T08:28:31;53190.91;;;-146.41;51.02
62995;BME280;49086;52.300;4.850;2022-08-06T08:30:58;53167.00;;;-146.41;51.43
62995;BME280;49086;52.300;4.850;2022-08-06T08:33:33;53218.81;;;-146.41;52.34
62995;BME280;49086;52.300;4.850;2022-08-06T08:36:02;53192.91;;;-146.41;51.79
62995;BME280;49086;52.300;4.850;2022-08-06T08:39:10;53188.91;;;-146.41;49.35
62995;BME280;49086;52.300;4.850;2022-08-06T08:41:52;53165.00;;;-146.41;49.65
62995;BME280;49086;52.300;4.850;2022-08-06T08:44:28;53168.97;;;-146.41;48.97
62995;BME280;49086;52.300;4.850;2022-08-06T08:46:59;53182.94;;;-146.41;49.89
62995;BME280;49086;52.300;4.850;2022-08-06T08:49:56;53188.91;;;-146.41;51.79
62995;BME280;49086;52.300;4.850;2022-08-06T08:52:32;53157.03;;;-146.41;50.56
62995;BME280;49086;52.300;4.850;2022-08-06T08:55:06;53157.03;;;-146.41;48.60
62995;BME280;49086;52.300;4.850;2022-08-06T08:57:35;53167.00;;;-146.41;48.10
62995;BME280;49086;52.300;4.850;2022-08-06T09:00:04;53176.94;;;-146.41;48.35
62995;BME280;49086;52.300;4.850;2022-08-06T09:02:37;53176.94;;;-146.41;49.97
62995;BME280;49086;52.300;4.850;2022-08-06T09:05:06;53198.88;;;-146.41;50.41
62995;BME280;49086;52.300;4.850;2022-08-06T09:07:33;53202.88;;;-146.41;50.28
62995;BME280;49086;52.300;4.850;2022-08-06T09:10:00;53210.84;;;-146.41;51.28
62995;BME280;49086;52.300;4.850;2022-08-06T09:12:25;53256.69;;;-146.41;51.88
62995;BME280;49086;52.300;4.850;2022-08-06T09:14:51;53200.88;;;-146.41;51.99
62995;BME280;49086;52.300;4.850;2022-08-06T09:17:18;53274.63;;;-146.41;51.80
62995;BME280;49086;52.300;4.850;2022-08-06T09:19:45;53264.66;;;-146.41;51.83
62995;BME280;49086;52.300;4.850;2022-08-06T09:22:13;53206.84;;;-146.41;51.57
62995;BME280;49086;52.300;4.850;2022-08-06T09:24:39;53194.88;;;-146.41;49.92
62995;BME280;49086;52.300;4.850;2022-08-06T09:27:09;53186.91;;;-146.41;49.79
62995;BME280;49086;52.300;4.850;2022-08-06T09:29:53;53143.06;;;-146.41;48.50
62995;BME280;49086;52.300;4.850;2022-08-06T09:32:42;53163.00;;;-146.41;47.29
62995;BME280;49086;52.300;4.850;2022-08-06T09:35:22;53216.81;;;-146.41;48.59
62995;BME280;49086;52.300;4.850;2022-08-06T09:37:58;53151.03;;;-146.41;47.84
62995;BME280;49086;52.300;4.850;2022-08-06T09:40:24;53210.84;;;-146.41;47.04
62995;BME280;49086;52.300;4.850;2022-08-06T09:42:50;53163.00;;;-146.41;47.23
62995;BME280;49086;52.300;4.850;2022-08-06T09:45:24;53218.81;;;-146.41;47.67
62995;BME280;49086;52.300;4.850;2022-08-06T09:48:06;53176.94;;;-146.41;44.70
62995;BME280;49086;52.300;4.850;2022-08-06T09:50:44;53131.09;;;-146.41;43.54
62995;BME280;49086;52.300;4.850;2022-08-06T09:53:14;53109.19;;;-146.41;42.50
62995;BME280;49086;52.300;4.850;2022-08-06T09:55:39;53109.19;;;-146.41;42.41
62995;BME280;49086;52.300;4.850;2022-08-06T09:58:06;53119.16;;;-146.41;41.40
62995;BME280;49086;52.300;4.850;2022-08-06T10:00:35;53111.19;;;-146.41;41.51
62995;BME280;49086;52.300;4.850;2022-08-06T10:03:05;53119.16;;;-146.41;43.64
62995;BME280;49086;52.300;4.850;2022-08-06T10:05:33;53143.06;;;-146.41;43.61
62995;BME280;49086;52.300;4.850;2022-08-06T10:08:08;53155.03;;;-146.41;43.69
62995;BME280;49086;52.300;4.850;2022-08-06T10:10:56;53170.97;;;-146.41;44.15
62995;BME280;49086;52.300;4.850;2022-08-06T10:13:30;53153.03;;;-146.41;44.41
62995;BME280;49086;52.300;4.850;2022-08-06T10:16:14;53190.91;;;-146.41;44.84
62995;BME280;49086;52.300;4.850;2022-08-06T10:18:41;53174.97;;;-146.41;44.91
62995;BME280;49086;52.300;4.850;2022-08-06T10:21:14;53137.09;;;-146.41;45.23
62995;BME280;49086;52.300;4.850;2022-08-06T10:23:45;53170.97;;;-146.41;42.48
62995;BME280;49086;52.300;4.850;2022-08-06T10:26:13;53111.19;;;-146.41;41.08
62995;BME280;49086;52.300;4.850;2022-08-06T10:28:43;53111.19;;;-146.41;39.42
62995;BME280;49086;52.300;4.850;2022-08-06T10:31:13;53093.25;;;-146.41;38.61
62995;BME280;49086;52.300;4.850;2022-08-06T10:33:55;53087.25;;;-146.41;38.04
62995;BME280;49086;52.300;4.850;2022-08-06T10:36:45;53147.06;;;-146.41;36.92
62995;BME280;49086;52.300;4.850;2022-08-06T10:39:15;53105.19;;;-146.41;37.34
62995;BME280;49086;52.300;4.850;2022-08-06T10:41:43;53093.25;;;-146.41;36.71
62995;BME280;49086;52.300;4.850;2022-08-06T10:44:10;53117.16;;;-146.41;38.36
62995;BME280;49086;52.300;4.850;2022-08-06T10:46:35;53029.47;;;-146.41;37.80
62995;BME280;49086;52.300;4.850;2022-08-06T10:49:01;53053.38;;;-146.41;38.44
62995;BME280;49086;52.300;4.850;2022-08-06T10:51:28;53051.38;;;-146.41;37.70
62995;BME280;49086;52.300;4.850;2022-08-06T10:53:54;53121.13;;;-146.41;39.05
62995;BME280;49086;52.300;4.850;2022-08-06T10:56:24;53161.00;;;-146.41;40.29
62995;BME280;49086;52.300;4.850;2022-08-06T10:58:53;53103.19;;;-146.41;40.85
62995;BME280;49086;52.300;4.850;2022-08-06T11:01:34;53061.34;;;-146.41;39.31
62995;BME280;49086;52.300;4.850;2022-08-06T11:08:09;53003.53;;;-146.41;36.03
62995;BME280;49086;52.300;4.850;2022-08-06T11:10:56;53027.47;;;-146.41;35.72
62995;BME280;49086;52.300;4.850;2022-08-06T11:13:30;53001.56;;;-146.41;36.05
62995;BME280;49086;52.300;4.850;2022-08-06T11:15:56;53035.44;;;-146.41;36.43
62995;BME280;49086;52.300;4.850;2022-08-06T11:18:23;53009.53;;;-146.41;37.13
62995;BME280;49086;52.300;4.850;2022-08-06T11:20:50;53001.56;;;-146.41;36.54
62995;BME280;49086;52.300;4.850;2022-08-06T11:25:59;53067.31;;;-146.41;37.47
62995;BME280;49086;52.300;4.850;2022-08-06T11:28:57;53023.47;;;-146.41;37.23
62995;BME280;49086;52.300;4.850;2022-08-06T11:31:38;53039.41;;;-146.41;37.04
62995;BME280;49086;52.300;4.850;2022-08-06T11:34:08;53063.34;;;-146.41;36.72
62995;BME280;49086;52.300;4.850;2022-08-06T11:36:57;53039.41;;;-146.41;35.42
62995;BME280;49086;52.300;4.850;2022-08-06T11:39:25;53043.41;;;-146.41;35.88
62995;BME280;49086;52.300;4.850;2022-08-06T11:42:00;53007.53;;;-146.41;36.11
62995;BME280;49086;52.300;4.850;2022-08-06T11:44:33;52975.63;;;-146.41;35.55
62995;BME280;49086;52.300;4.850;2022-08-06T11:47:15;53035.44;;;-146.41;35.81
62995;BME280;49086;52.300;4.850;2022-08-06T11:49:48;53135.09;;;-146.41;37.31
62995;BME280;49086;52.300;4.850;2022-08-06T11:55:14;53033.44;;;-146.41;38.51
62995;BME280;49086;52.300;4.850;2022-08-06T11:57:44;53033.44;;;-146.41;37.08
62995;BME280;49086;52.300;4.850;2022-08-06T12:00:18;53097.22;;;-146.41;37.48
62995;BME280;49086;52.300;4.850;2022-08-06T12:02:50;53057.34;;;-146.41;38.78
62995;BME280;49086;52.300;4.850;2022-08-06T12:13:44;52995.56;;;-146.41;35.35
62995;BME280;49086;52.300;4.850;2022-08-06T12:16:35;53075.28;;;-146.41;34.98
62995;BME280;49086;52.300;4.850;2022-08-06T12:19:05;53159.00;;;-146.41;37.04
62995;BME280;49086;52.300;4.850;2022-08-06T12:21:36;53147.06;;;-146.41;38.33
62995;BME280;49086;52.300;4.850;2022-08-06T12:24:05;53172.97;;;-146.41;39.42
62995;BME280;49086;52.300;4.850;2022-08-06T12:26:31;53115.16;;;-146.41;39.45
62995;BME280;49086;52.300;4.850;2022-08-06T12:29:00;53170.97;;;-146.41;39.21
62995;BME280;49086;52.300;4.850;2022-08-06T12:31:32;53135.09;;;-146.41;39.60
62995;BME280;49086;52.300;4.850;2022-08-06T12:33:59;53167.00;;;-146.41;39.79
62995;BME280;49086;52.300;4.850;2022-08-06T12:36:27;53047.41;;;-146.41;37.50
62995;BME280;49086;52.300;4.850;2022-08-06T12:38:58;53003.53;;;-146.41;36.36
62995;BME280;49086;52.300;4.850;2022-08-06T12:41:32;53011.50;;;-146.41;35.57
62995;BME280;49086;52.300;4.850;2022-08-06T12:43:58;52997.56;;;-146.41;35.96
62995;BME280;49086;52.300;4.850;2022-08-06T12:46:25;53035.44;;;-146.41;34.69
62995;BME280;49086;52.300;4.850;2022-08-06T12:48:55;53049.38;;;-146.41;35.31
62995;BME280;49086;52.300;4.850;2022-08-06T12:51:22;53127.13;;;-146.41;36.05
62995;BME280;49086;52.300;4.850;2022-08-06T12:53:57;53163.00;;;-146.41;37.29
62995;BME280;49086;52.300;4.850;2022-08-06T12:56:23;53039.41;;;-146.41;36.91
62995;BME280;49086;52.300;4.850;2022-08-06T12:58:56;53039.41;;;-146.41;36.17
62995;BME280;49086;52.300;4.850;2022-08-06T13:01:25;53051.38;;;-146.41;34.88
62995;BME280;49086;52.300;4.850;2022-08-06T13:03:53;53023.47;;;-146.41;34.04
62995;BME280;49086;52.300;4.850;2022-08-06T13:06:26;53035.44;;;-146.41;33.71
62995;BME280;49086;52.300;4.850;2022-08-06T13:08:53;53111.19;;;-146.41;33.98
62995;BME280;49086;52.300;4.850;2022-08-06T13:11:20;53043.41;;;-146.41;34.79
62995;BME280;49086;52.300;4.850;2022-08-06T13:13:53;52993.56;;;-146.41;33.62
62995;BME280;49086;52.300;4.850;2022-08-06T13:16:20;53035.44;;;-146.41;33.36
62995;BME280;49086;52.300;4.850;2022-08-06T13:19:08;53009.53;;;-146.41;33.38
62995;BME280;49086;52.300;4.850;2022-08-06T13:21:39;53009.53;;;-146.41;32.75
62995;BME280;49086;52.300;4.850;2022-08-06T13:24:08;52993.56;;;-146.41;33.57
62995;BME280;49086;52.300;4.850;2022-08-06T13:26:51;52975.63;;;-146.41;33.56
62995;BME280;49086;52.300;4.850;2022-08-06T13:31:59;52995.56;;;-146.41;32.62
62995;BME280;49086;52.300;4.850;2022-08-06T13:34:25;53077.28;;;-146.41;33.59
62995;BME280;49086;52.300;4.850;2022-08-06T13:36:56;53033.44;;;-146.41;33.94
62995;BME280;49086;52.300;4.850;2022-08-06T13:39:31;53137.09;;;-146.41;35.78
62995;BME280;49086;52.300;4.850;2022-08-06T13:42:22;53161.00;;;-146.41;36.85
62995;BME280;49086;52.300;4.850;2022-08-06T13:45:17;53099.22;;;-146.41;37.07
62995;BME280;49086;52.300;4.850;2022-08-06T13:47:45;53049.38;;;-146.41;35.97
62995;BME280;49086;52.300;4.850;2022-08-06T13:50:17;53033.44;;;-146.41;37.11
62995;BME280;49086;52.300;4.850;2022-08-06T13:52:45;53159.00;;;-146.41;38.08